Terminal Aerodrome Forecast
Issued by NWS

Home | Current Version | Previous Version | Text Only | Print | Product List | Glossary On
Versions: 1 2 3 4 5 6 7 8 9 10 11 12 13 14 15 16 17 18 19 20 21 22 23 24 25 26 27 28 29 30 31 32 33
000
FTUS41 KBGM 231400 AAA
TAFRME
TAF AMD
KRME 231402Z 2314/2412 32012KT P6SM FEW025 SCT060
      TEMPO 2314/2316 BKN025
     FM231600 33012KT P6SM SCT025 OVC060
      TEMPO 2319/2323 -SHRA OVC025
     FM240200 32007KT P6SM FEW035 BKN060=

USA.gov is the U.S. government's official web portal to all federal, state and local government web resources and services.